Terminal Aerodrome Forecast
Issued by NWS Springfield, MO

Home | Current Version | Previous Version | Text Only | Print | Product List | Glossary On
Versions: 1 2 3 4 5 6 7 8 9 10 11 12
269
FTUS43 KSGF 081120
TAFSGF
TAF
KSGF 081120Z 0812/0912 30005KT P6SM FEW200
     FM081500 31013KT P6SM FEW250
     FM082300 31009KT P6SM SKC=

USA.gov is the U.S. government's official web portal to all federal, state and local government web resources and services.